Time;durP1;ratioP1;P1;durP2;ratioP2;P2;SDS_P1;SDS_P2;PMS_P1;PMS_P2;Temp;Humidity;BMP_temperature;BMP_pressure;BME280_temperature;BME280_humidity;BME280_pressure;Samples;Min_cycle;Max_cycle;Signal;HPM_P1;HPM_P2
2022/05/16 00:02:15;;;;;;;17.73;2.33;;;;;;;16.45;100.00;100290.38;5030826;28;20842;-69
2022/05/16 00:04:44;;;;;;;5.97;3.03;;;;;;;16.38;100.00;100275.88;5045944;28;20114;-69
2022/05/16 00:07:10;;;;;;;5.82;2.42;;;;;;;16.42;100.00;100280.00;5029213;28;20036;-68
2022/05/16 00:09:35;;;;;;;8.02;2.70;;;;;;;16.43;100.00;100273.69;5029524;28;20035;-68
2022/05/16 00:12:01;;;;;;;12.52;2.28;;;;;;;16.46;100.00;100281.44;5045210;28;20032;-68
2022/05/16 00:14:27;;;;;;;6.03;2.53;;;;;;;16.27;100.00;100243.06;5029109;28;20257;-67
2022/05/16 00:16:52;;;;;;;4.65;2.38;;;;;;;16.44;100.00;100264.78;5028946;28;20029;-68
2022/05/16 00:19:18;;;;;;;5.40;2.45;;;;;;;16.35;100.00;100261.06;5044727;28;20063;-68
2022/05/16 00:21:43;;;;;;;5.53;2.83;;;;;;;16.31;100.00;100249.84;5036501;28;20581;-68
2022/05/16 00:24:08;;;;;;;4.47;2.42;;;;;;;16.35;100.00;100256.59;5032904;28;20859;-68
2022/05/16 00:26:34;;;;;;;4.80;2.05;;;;;;;16.30;100.00;100258.75;5027939;28;20082;-68
2022/05/16 00:28:59;;;;;;;5.03;2.35;;;;;;;16.28;100.00;100260.69;5027602;28;20028;-68
2022/05/16 00:31:25;;;;;;;5.60;2.00;;;;;;;16.27;100.00;100264.28;5027695;28;20028;-67
2022/05/16 00:33:50;;;;;;;10.32;2.90;;;;;;;16.20;100.00;100263.03;5045682;28;20039;-68
2022/05/16 00:36:15;;;;;;;4.63;2.53;;;;;;;16.19;100.00;100261.34;5028729;28;20043;-67
2022/05/16 00:38:41;;;;;;;20.38;2.72;;;;;;;16.13;100.00;100256.50;5028460;28;20960;-68
2022/05/16 00:41:06;;;;;;;6.18;2.55;;;;;;;16.10;100.00;100262.06;5027513;28;20024;-67
2022/05/16 00:43:46;;;;;;;3.80;2.25;;;;;;;16.07;100.00;100262.28;5027707;28;20030;-67
2022/05/16 00:46:16;;;;;;;4.60;2.13;;;;;;;15.92;100.00;100250.16;5028276;28;20078;-67
2022/05/16 00:48:42;;;;;;;5.22;2.08;;;;;;;15.92;100.00;100250.16;5045149;28;20872;-67
2022/05/16 00:51:13;;;;;;;3.55;1.88;;;;;;;15.82;100.00;100252.66;5027989;28;20081;-67
2022/05/16 00:53:38;;;;;;;5.75;2.75;;;;;;;15.76;100.00;100246.97;5030619;28;20032;-67
2022/05/16 00:56:04;;;;;;;5.55;2.78;;;;;;;15.76;100.00;100257.56;5044872;28;20025;-68
2022/05/16 00:58:30;;;;;;;5.95;2.35;;;;;;;15.61;100.00;100242.81;5045963;28;20872;-68
2022/05/16 01:00:55;;;;;;;6.68;2.83;;;;;;;15.51;100.00;100232.06;5034029;28;20051;-68
2022/05/16 01:06:07;;;;;;;10.63;3.10;;;;;;;15.55;100.00;100251.19;5027289;28;20048;-67
2022/05/16 01:08:35;;;;;;;5.15;2.70;;;;;;;15.10;100.00;100190.03;5027220;28;20024;-68
2022/05/16 01:11:07;;;;;;;7.13;3.22;;;;;;;15.42;100.00;100247.72;5026192;28;20020;-68
2022/05/16 01:13:32;;;;;;;6.00;3.53;;;;;;;15.34;100.00;100241.16;5028426;28;20217;-68
2022/05/16 01:16:00;;;;;;;4.50;2.70;;;;;;;15.16;100.00;100221.34;5050562;28;20035;-68
2022/05/16 01:18:26;;;;;;;5.75;3.15;;;;;;;15.34;100.00;100251.75;5035701;28;20036;-68
2022/05/16 01:21:04;;;;;;;6.25;2.70;;;;;;;15.31;100.00;100257.28;5045182;28;20032;-68
2022/05/16 01:23:32;;;;;;;4.95;2.80;;;;;;;15.09;100.00;100228.00;5029852;28;20052;-68
2022/05/16 01:25:59;;;;;;;4.60;2.58;;;;;;;15.18;100.00;100239.72;5028358;28;20313;-68
2022/05/16 01:28:25;;;;;;;7.05;2.90;;;;;;;15.21;100.00;100266.81;5026355;28;20925;-68
2022/05/16 01:30:54;;;;;;;7.22;2.78;;;;;;;15.15;100.00;100275.22;5042357;28;20158;-68
2022/05/16 01:33:22;;;;;;;6.80;3.05;;;;;;;15.10;100.00;100274.72;5042139;28;20037;-67
2022/05/16 01:35:48;;;;;;;10.00;3.22;;;;;;;15.12;100.00;100291.31;5042280;28;20186;-68
2022/05/16 01:38:21;;;;;;;5.63;2.83;;;;;;;15.05;100.00;100287.41;5026927;28;20029;-68
2022/05/16 01:41:00;;;;;;;3.93;2.30;;;;;;;14.71;100.00;100236.00;5041335;28;20097;-68
2022/05/16 01:43:35;;;;;;;4.43;2.47;;;;;;;14.69;100.00;100237.94;5026288;28;20220;-69
2022/05/16 01:46:00;;;;;;;;;;;;;;;14.92;100.00;100281.28;5029969;28;20118;-68
2022/05/16 01:48:30;;;;;;;4.22;2.58;;;;;;;14.89;100.00;100278.00;5025597;28;20731;-68
2022/05/16 01:51:01;;;;;;;9.02;2.67;;;;;;;14.65;100.00;100247.03;5026936;28;20119;-69
2022/05/16 01:53:27;;;;;;;8.32;2.63;;;;;;;14.82;100.00;100274.94;5029670;28;20029;-68
2022/05/16 01:55:52;;;;;;;3.92;2.58;;;;;;;14.60;100.00;100243.84;5030102;28;20917;-69
2022/05/16 01:58:17;;;;;;;7.50;2.92;;;;;;;14.69;100.00;100263.53;5030408;28;20035;-68
2022/05/16 02:00:43;;;;;;;4.18;2.33;;;;;;;14.68;100.00;100261.81;5030225;28;20143;-68
2022/05/16 02:03:10;;;;;;;4.72;2.97;;;;;;;14.62;100.00;100263.09;5025904;28;20036;-67
2022/05/16 02:05:35;;;;;;;8.90;3.00;;;;;;;14.57;100.00;100253.78;5025014;28;20131;-67
2022/05/16 02:08:01;;;;;;;5.07;2.78;;;;;;;14.53;100.00;100252.31;5025764;28;20081;-68
2022/05/16 02:10:27;;;;;;;7.22;3.38;;;;;;;14.51;100.00;100247.13;5026237;28;20032;-68
2022/05/16 02:12:53;;;;;;;5.30;2.90;;;;;;;14.44;100.00;100248.50;5027150;28;20021;-68
2022/05/16 02:15:22;;;;;;;4.07;2.75;;;;;;;14.30;100.00;100228.25;5032758;28;20851;-68
2022/05/16 02:17:47;;;;;;;8.52;3.25;;;;;;;14.31;100.00;100232.59;5028152;28;20028;-68
2022/05/16 02:20:13;;;;;;;5.05;2.80;;;;;;;14.29;100.00;100238.94;5035334;28;20064;-68
2022/05/16 02:25:23;;;;;;;5.90;2.83;;;;;;;14.19;100.00;100225.47;5027095;28;20047;-68
2022/05/16 02:27:52;;;;;;;6.60;3.13;;;;;;;14.19;100.00;100225.47;5024675;28;20032;-68
2022/05/16 02:30:18;;;;;;;5.75;3.05;;;;;;;14.09;100.00;100205.09;5026052;28;20041;-68
2022/05/16 02:32:43;;;;;;;7.00;3.17;;;;;;;14.11;100.00;100225.16;5025658;28;20131;-69
2022/05/16 02:35:09;;;;;;;4.30;2.92;;;;;;;14.08;100.00;100230.66;5026290;28;20891;-69
2022/05/16 02:37:35;;;;;;;9.15;3.13;;;;;;;13.94;100.00;100217.53;5042220;28;20913;-69
2022/05/16 02:40:00;;;;;;;4.47;2.72;;;;;;;13.94;100.00;100217.53;5043716;28;20048;-69
2022/05/16 02:42:26;;;;;;;5.05;2.80;;;;;;;13.82;100.00;100215.72;5025686;28;20837;-68
2022/05/16 02:44:52;;;;;;;4.07;2.70;;;;;;;13.81;100.00;100220.16;5043633;28;20028;-69
2022/05/16 02:47:19;;;;;;;4.88;3.20;;;;;;;13.72;100.00;100201.44;5026523;28;20043;-68
2022/05/16 02:49:45;;;;;;;4.03;2.60;;;;;;;13.60;100.00;100191.66;5040932;28;20086;-69
2022/05/16 02:52:11;;;;;;;4.63;2.90;;;;;;;13.40;100.00;100171.00;5026539;28;20961;-68
2022/05/16 02:54:36;;;;;;;7.15;3.63;;;;;;;13.71;100.00;100219.06;5043283;28;20935;-69
2022/05/16 02:57:03;;;;;;;6.22;3.30;;;;;;;13.56;100.00;100190.16;5042939;28;20873;-69
2022/05/16 02:59:32;;;;;;;5.03;3.10;;;;;;;13.44;100.00;100180.41;5042133;28;20028;-69
2022/05/16 03:02:02;;;;;;;5.90;3.28;;;;;;;13.55;100.00;100205.16;5027250;28;20143;-69
2022/05/16 03:04:27;;;;;;;5.80;3.50;;;;;;;13.55;100.00;100212.25;5041104;28;20036;-69
2022/05/16 03:06:53;;;;;;;7.70;3.50;;;;;;;13.52;100.00;100204.53;5025465;28;20800;-68
2022/05/16 03:09:18;;;;;;;6.35;3.13;;;;;;;13.42;100.00;100203.44;5026378;28;20031;-69
2022/05/16 03:11:44;;;;;;;4.07;2.88;;;;;;;13.42;100.00;100208.72;5026030;28;20818;-69
2022/05/16 03:14:11;;;;;;;6.75;3.15;;;;;;;13.39;100.00;100203.63;5024291;28;20040;-69
2022/05/16 03:16:36;;;;;;;4.65;3.05;;;;;;;13.37;100.00;100213.44;5025849;28;20037;-69
2022/05/16 03:19:02;;;;;;;5.63;3.28;;;;;;;13.31;100.00;100218.16;5026709;28;20366;-69
2022/05/16 03:21:29;;;;;;;6.40;2.83;;;;;;;13.20;100.00;100219.78;5026288;28;20039;-69
2022/05/16 03:23:55;;;;;;;5.43;3.20;;;;;;;13.12;100.00;100211.50;5026252;28;20043;-69
2022/05/16 03:26:20;;;;;;;4.90;2.97;;;;;;;13.09;100.00;100201.16;5026485;28;20032;-69
2022/05/16 03:28:45;;;;;;;5.80;2.80;;;;;;;13.10;100.00;100209.00;5025864;28;20064;-69
2022/05/16 03:31:11;;;;;;;10.63;3.72;;;;;;;13.03;100.00;100197.09;5027132;28;20037;-68
2022/05/16 03:33:36;;;;;;;7.10;3.85;;;;;;;13.04;100.00;100198.81;5025139;28;20023;-68
2022/05/16 03:36:01;;;;;;;7.55;3.30;;;;;;;13.10;100.00;100203.72;5024684;28;20025;-69
2022/05/16 03:41:12;;;;;;;;;;;;;;;13.18;100.00;100219.06;5028540;28;20909;-68
2022/05/16 03:43:39;;;;;;;9.85;3.60;;;;;;;13.20;100.00;100206.59;5025132;28;19912;-69
2022/05/16 03:46:05;;;;;;;5.88;3.40;;;;;;;13.13;100.00;100203.50;5042877;28;20039;-69
2022/05/16 03:48:31;;;;;;;6.93;3.58;;;;;;;13.22;100.00;100208.19;5030328;28;20028;-69
2022/05/16 03:50:57;;;;;;;11.77;3.28;;;;;;;13.18;100.00;100196.13;5044407;28;20953;-69
2022/05/16 03:53:22;;;;;;;5.70;3.35;;;;;;;13.31;100.00;100202.31;5044233;28;20027;-69
2022/05/16 03:55:47;;;;;;;7.72;3.60;;;;;;;13.37;100.00;100205.50;5044288;28;20063;-69
2022/05/16 03:58:13;;;;;;;5.40;3.38;;;;;;;13.31;100.00;100191.75;5028180;28;20029;-70
2022/05/16 04:00:38;;;;;;;5.80;3.13;;;;;;;13.38;100.00;100189.59;5028120;28;20024;-69
2022/05/16 04:03:04;;;;;;;7.18;3.72;;;;;;;13.54;100.00;100203.47;5045512;28;20082;-69
2022/05/16 04:05:29;;;;;;;6.55;3.00;;;;;;;13.53;100.00;100185.94;5031768;28;20130;-69
2022/05/16 04:07:55;;;;;;;5.90;3.65;;;;;;;13.68;100.00;100199.94;5045787;28;20827;-69
2022/05/16 04:10:21;;;;;;;8.20;3.40;;;;;;;13.72;100.00;100196.16;5030124;28;20040;-69
2022/05/16 04:12:46;;;;;;;6.63;3.10;;;;;;;13.81;100.00;100190.25;5029128;28;20888;-69
2022/05/16 04:15:13;;;;;;;4.78;3.45;;;;;;;13.87;100.00;100195.13;5032072;28;20091;-69
2022/05/16 04:17:39;;;;;;;7.82;3.20;;;;;;;14.06;100.00;100207.94;5047675;28;20036;-69
2022/05/16 04:20:06;;;;;;;4.60;2.78;;;;;;;14.14;100.00;100214.41;5048454;28;20020;-69
2022/05/16 04:22:32;;;;;;;5.15;2.97;;;;;;;14.06;100.00;100173.59;5037993;28;20020;-69
2022/05/16 04:24:58;;;;;;;6.07;3.47;;;;;;;14.28;100.00;100190.53;5052175;28;20093;-68
2022/05/16 04:27:23;;;;;;;5.85;2.95;;;;;;;14.27;100.00;100167.66;5056316;28;20030;-69
2022/05/16 04:29:49;;;;;;;5.60;3.17;;;;;;;14.71;100.00;100214.00;5045831;28;20964;-70
2022/05/16 04:32:14;;;;;;;5.57;3.38;;;;;;;14.87;100.00;100214.59;5053062;28;20036;-70
2022/05/16 04:34:40;;;;;;;5.22;3.30;;;;;;;14.90;100.00;100203.84;5049266;28;20584;-69
2022/05/16 04:37:05;;;;;;;10.18;4.00;;;;;;;15.08;100.00;100212.22;5047291;28;20038;-69
2022/05/16 04:39:31;;;;;;;7.70;3.78;;;;;;;15.10;100.00;100194.47;5048408;28;20035;-70
2022/05/16 04:44:40;;;;;;;7.65;3.75;;;;;;;15.22;100.00;100197.06;5029931;28;20140;-68
2022/05/16 04:47:07;;;;;;;15.20;5.25;;;;;;;14.98;100.00;100147.69;5030865;28;20853;-68
2022/05/16 04:49:33;;;;;;;7.40;4.25;;;;;;;15.36;100.00;100211.94;5030704;28;20074;-69
2022/05/16 04:51:58;;;;;;;6.35;3.85;;;;;;;15.37;100.00;100212.78;5044349;28;20035;-69
2022/05/16 04:54:25;;;;;;;12.48;3.85;;;;;;;15.45;100.00;100215.69;5047776;28;20086;-69
2022/05/16 04:56:51;;;;;;;7.60;3.70;;;;;;;15.42;100.00;100205.34;5050019;28;20036;-69
2022/05/16 04:59:20;;;;;;;4.82;3.08;;;;;;;15.52;100.00;100211.69;5048853;28;20028;-69
2022/05/16 05:01:46;;;;;;;18.52;4.15;;;;;;;15.60;100.00;100227.88;5048446;28;20024;-69
2022/05/16 05:04:11;;;;;;;11.77;4.25;;;;;;;15.59;100.00;100224.38;5048839;28;20098;-69
2022/05/16 05:06:37;;;;;;;10.93;4.25;;;;;;;15.40;100.00;100189.59;5046595;28;20039;-69
2022/05/16 05:09:02;;;;;;;13.48;4.38;;;;;;;15.59;100.00;100220.88;5047393;28;20048;-69
2022/05/16 05:16:55;;;;;;;4.95;2.97;;;;;;;15.76;100.00;100228.41;5029048;28;20987;-69
2022/05/16 05:19:21;;;;;;;7.35;3.22;;;;;;;15.81;100.00;100234.25;5029763;28;20032;-69
2022/05/16 05:21:48;;;;;;;8.32;2.97;;;;;;;15.88;100.00;100240.78;5027727;28;20233;-69
2022/05/16 05:24:13;;;;;;;7.18;4.18;;;;;;;15.83;100.00;100224.34;5026625;28;20920;-69
2022/05/16 05:26:42;;;;;;;7.38;3.72;;;;;;;15.69;100.00;100192.75;5027497;28;20036;-69
2022/05/16 05:29:08;;;;;;;8.02;3.60;;;;;;;15.84;100.00;100226.91;5046053;28;20970;-69
2022/05/16 05:31:34;;;;;;;10.00;4.53;;;;;;;15.77;100.00;100222.19;5048064;28;20043;-69
2022/05/16 05:33:59;;;;;;;7.90;3.50;;;;;;;15.81;100.00;100224.50;5043937;28;20115;-69
2022/05/16 05:36:28;;;;;;;7.28;3.88;;;;;;;15.95;100.00;100252.63;5049043;28;20554;-69
2022/05/16 05:38:53;;;;;;;4.97;3.67;;;;;;;15.96;100.00;100258.72;5041261;28;20036;-69
2022/05/16 05:41:20;;;;;;;5.60;3.63;;;;;;;15.96;100.00;100275.47;5027739;28;20862;-69
2022/05/16 05:43:46;;;;;;;6.07;3.80;;;;;;;15.88;100.00;100245.22;5028619;28;20123;-69
2022/05/16 05:46:11;;;;;;;6.53;3.88;;;;;;;15.97;100.00;100255.13;5033827;28;20036;-69
2022/05/16 05:48:36;;;;;;;7.63;4.40;;;;;;;15.87;100.00;100244.38;5044114;28;20094;-71
2022/05/16 05:51:03;;;;;;;13.38;6.00;;;;;;;15.89;100.00;100253.03;5029778;28;20109;-72
2022/05/16 05:53:28;;;;;;;10.88;5.00;;;;;;;15.83;100.00;100241.09;5029553;28;20861;-66
2022/05/16 05:55:54;;;;;;;8.88;4.03;;;;;;;15.93;100.00;100259.81;5034584;28;20078;-66
2022/05/16 05:58:20;;;;;;;15.43;5.25;;;;;;;16.06;100.00;100276.50;5031713;28;20064;-66
2022/05/16 06:00:45;;;;;;;9.50;4.18;;;;;;;16.13;100.00;100282.19;5030190;28;20040;-67
2022/05/16 06:03:11;;;;;;;6.47;3.70;;;;;;;16.09;100.00;100272.75;5030148;28;20537;-67
2022/05/16 06:05:36;;;;;;;7.85;3.70;;;;;;;16.09;100.00;100267.44;5029994;28;20025;-67
2022/05/16 06:08:02;;;;;;;7.13;3.45;;;;;;;16.23;100.00;100284.03;5030772;28;20036;-67
2022/05/16 06:10:27;;;;;;;5.65;3.83;;;;;;;16.30;100.00;100285.25;5032239;28;20201;-66
2022/05/16 06:12:54;;;;;;;7.03;4.10;;;;;;;16.31;100.00;100275.50;5033265;28;20024;-67
2022/05/16 06:15:20;;;;;;;13.68;4.07;;;;;;;16.41;100.00;100294.22;5052189;28;20035;-67
2022/05/16 06:17:46;;;;;;;21.05;6.75;;;;;;;16.46;100.00;100289.41;5057915;28;20131;-67
2022/05/16 06:20:13;;;;;;;18.50;6.80;;;;;;;16.56;100.00;100285.13;5045919;28;20068;-66
2022/05/16 06:22:38;;;;;;;14.43;5.72;;;;;;;16.53;100.00;100269.38;5047817;28;20023;-67
2022/05/16 06:27:55;;;;;;;10.45;4.38;;;;;;;16.98;100.00;100276.47;5057450;28;20043;-66
2022/05/16 06:30:21;;;;;;;14.57;4.55;;;;;;;17.23;100.00;100294.84;5058046;28;20071;-66
2022/05/16 06:32:47;;;;;;;9.90;3.58;;;;;;;17.37;100.00;100291.06;5057879;28;20020;-66
2022/05/16 06:35:13;;;;;;;7.85;3.95;;;;;;;17.51;100.00;100290.78;5065019;28;20028;-66
2022/05/16 06:37:38;;;;;;;12.23;4.15;;;;;;;17.71;100.00;100302.53;5056176;28;20020;-67
2022/05/16 06:40:04;;;;;;;10.82;3.92;;;;;;;17.77;100.00;100296.69;5047881;28;20942;-66
2022/05/16 06:42:30;;;;;;;10.05;3.78;;;;;;;17.91;100.00;100304.41;5059649;28;20039;-66
2022/05/16 06:44:55;;;;;;;16.15;4.47;;;;;;;18.08;100.00;100317.13;5053352;28;20063;-66
2022/05/16 06:47:21;;;;;;;24.95;4.43;;;;;;;18.20;100.00;100315.28;5065667;28;20739;-67
2022/05/16 06:49:46;;;;;;;11.55;4.10;;;;;;;18.33;100.00;100322.09;5056546;28;20194;-67
2022/05/16 06:52:12;;;;;;;14.38;3.65;;;;;;;18.50;100.00;100322.50;5045682;28;20035;-66
2022/05/16 06:54:37;;;;;;;12.48;3.70;;;;;;;18.78;100.00;100327.22;5051686;28;20131;-67
2022/05/16 06:57:03;;;;;;;10.57;3.63;;;;;;;18.89;100.00;100303.19;5057980;28;20101;-67
2022/05/16 06:59:28;;;;;;;10.05;4.25;;;;;;;19.27;100.00;100316.66;5063949;28;20028;-67
2022/05/16 07:01:54;;;;;;;8.50;3.78;;;;;;;19.52;100.00;100325.22;5065642;28;20096;-66
2022/05/16 07:04:19;;;;;;;20.02;4.03;;;;;;;19.68;100.00;100317.53;5065341;28;20028;-67
2022/05/16 07:06:45;;;;;;;10.68;4.45;;;;;;;19.77;100.00;100309.53;5064467;28;20028;-67
2022/05/16 07:09:10;;;;;;;11.10;3.00;;;;;;;20.01;100.00;100329.69;5067327;28;20028;-66
2022/05/16 07:11:35;;;;;;;10.82;3.95;;;;;;;20.10;100.00;100319.00;5060168;28;20925;-66
2022/05/16 07:14:01;;;;;;;16.55;3.70;;;;;;;20.19;100.00;100322.66;5058206;28;20035;-66
2022/05/16 07:16:27;;;;;;;10.63;3.35;;;;;;;20.15;100.00;100300.75;5060599;28;20134;-67
2022/05/16 07:18:52;;;;;;;10.48;3.00;;;;;;;20.34;100.00;100307.94;5057321;28;20044;-66
2022/05/16 07:21:18;;;;;;;6.55;3.17;;;;;;;20.45;100.00;100318.47;5056851;28;20032;-66
2022/05/16 07:23:45;;;;;;;8.90;3.42;;;;;;;20.54;100.00;100332.81;5058771;28;20102;-66
2022/05/16 07:28:54;;;;;;;7.75;3.25;;;;;;;20.57;100.00;100346.72;5057934;28;20070;-66
2022/05/16 07:31:20;;;;;;;11.13;3.97;;;;;;;20.59;100.00;100354.56;5054943;28;20036;-66
2022/05/16 07:33:45;;;;;;;7.45;3.20;;;;;;;20.03;100.00;100227.19;5053049;28;20024;-66
2022/05/16 07:36:10;;;;;;;30.48;3.65;;;;;;;20.92;100.00;100338.06;5052664;28;20059;-66
2022/05/16 07:38:36;;;;;;;5.88;2.53;;;;;;;21.13;100.00;100337.88;5050807;28;20020;-66
2022/05/16 07:41:01;;;;;;;6.28;2.22;;;;;;;21.30;100.00;100340.66;5049509;28;20798;-66
2022/05/16 07:43:27;;;;;;;9.73;2.72;;;;;;;21.36;100.00;100336.53;5035318;28;20032;-66
2022/05/16 07:45:53;;;;;;;6.20;2.70;;;;;;;21.29;100.00;100340.81;5048954;28;20027;-67
2022/05/16 07:48:19;;;;;;;4.50;2.20;;;;;;;21.23;100.00;100347.56;5049682;28;20896;-66
2022/05/16 07:50:45;;;;;;;11.85;2.70;;;;;;;21.17;100.00;100358.84;5049044;28;20028;-66
2022/05/16 07:53:12;;;;;;;7.72;2.60;;;;;;;21.04;100.00;100352.94;5048254;28;20873;-66
2022/05/16 07:55:39;;;;;;;7.28;2.72;;;;;;;20.74;100.00;100324.63;5048794;28;20020;-66
2022/05/16 07:58:04;;;;;;;5.32;2.75;;;;;;;20.77;100.00;100334.16;5048739;28;20038;-66
2022/05/16 08:00:30;;;;;;;12.07;2.92;;;;;;;20.94;100.00;100346.78;5048724;28;20864;-66
2022/05/16 08:02:56;;;;;;;15.27;2.47;;;;;;;21.11;100.00;100353.25;5048874;28;20815;-66
2022/05/16 08:05:21;;;;;;;5.38;3.20;;;;;;;21.26;100.00;100355.28;5049275;28;20109;-67
2022/05/16 08:10:31;;;;;;;13.95;3.55;;;;;;;21.44;100.00;100333.13;5050221;28;20156;-65
2022/05/16 08:13:04;;;;;;;10.10;3.17;;;;;;;21.74;100.00;100347.06;5049413;28;20020;-66
2022/05/16 08:15:31;;;;;;;9.65;3.10;;;;;;;21.95;100.00;100362.88;5046869;28;20025;-66
2022/05/16 08:17:57;;;;;;;13.05;3.42;;;;;;;22.07;100.00;100364.34;5034987;28;20117;-66
2022/05/16 08:20:23;;;;;;;5.72;2.28;;;;;;;22.19;100.00;100363.13;5047027;28;20193;-65
2022/05/16 08:22:49;;;;;;;9.35;3.17;;;;;;;22.26;100.00;100358.84;5046605;28;20299;-67
2022/05/16 08:25:14;;;;;;;11.77;3.70;;;;;;;22.44;100.00;100372.25;5029100;28;20132;-65
2022/05/16 08:27:41;;;;;;;5.38;1.92;;;;;;;22.56;100.00;100362.97;5029012;28;20024;-66
2022/05/16 08:30:07;;;;;;;11.32;3.05;;;;;;;22.53;100.00;100343.69;5028369;28;20874;-66
2022/05/16 08:32:34;;;;;;;9.02;2.80;;;;;;;22.62;100.00;100348.13;5027023;28;20872;-66
2022/05/16 08:35:02;;;;;;;8.95;2.78;;;;;;;22.79;100.00;100360.69;5028018;28;20484;-66
2022/05/16 08:40:12;;;;;;;9.60;2.70;;;;;;;22.84;100.00;100351.19;5028352;28;20086;-66
2022/05/16 08:42:54;;;;;;;5.88;2.40;;;;;;;23.04;100.00;100362.53;5027966;28;20044;-66
2022/05/16 08:45:34;;;;;;;5.57;2.38;;;;;;;23.16;100.00;100368.47;5027545;28;20028;-65
2022/05/16 08:48:22;;;;;;;5.22;2.55;;;;;;;23.26;100.00;100375.41;5044992;28;20037;-65
2022/05/16 08:50:52;;;;;;;4.78;2.72;;;;;;;23.35;100.00;100374.44;5041968;28;20059;-66
2022/05/16 08:53:23;;;;;;;5.82;2.65;;;;;;;23.44;100.00;100378.06;5041927;28;20818;-66
2022/05/16 08:55:53;;;;;;;6.40;2.75;;;;;;;23.54;100.00;100375.25;5048618;28;20024;-67
2022/05/16 08:58:26;;;;;;;7.65;3.15;;;;;;;23.65;100.00;100369.59;5047837;28;20058;-67
2022/05/16 09:00:57;;;;;;;5.22;2.35;;;;;;;23.79;100.00;100377.88;5049212;28;20337;-66
2022/05/16 09:03:47;;;;;;;6.28;2.85;;;;;;;24.02;100.00;100382.66;5049232;28;20017;-66
2022/05/16 09:06:17;;;;;;;7.00;2.60;;;;;;;23.97;100.00;100356.28;5046895;28;20040;-65
2022/05/16 09:08:51;;;;;;;6.00;2.33;;;;;;;24.12;100.00;100370.81;5047738;28;20920;-66
2022/05/16 09:11:22;;;;;;;5.65;2.63;;;;;;;24.19;100.00;100385.25;5050028;28;20085;-66
2022/05/16 09:13:54;;;;;;;7.05;2.47;;;;;;;24.33;100.00;100400.69;5048612;28;20028;-65
2022/05/16 09:16:39;;;;;;;8.65;2.80;;;;;;;24.45;100.00;100395.03;5046915;28;20032;-65
2022/05/16 09:19:34;;;;;;;7.68;2.75;;;;;;;24.43;97.98;100393.34;5037959;28;20040;-65
2022/05/16 09:22:08;;;;;;;6.07;2.65;;;;;;;24.38;99.55;100390.31;5034115;28;20091;-67
2022/05/16 09:25:11;;;;;;;12.98;3.08;;;;;;;24.36;99.04;100408.47;5035079;28;20028;-66
2022/05/16 09:30:24;;;;;;;11.55;3.20;;;;;;;24.16;100.00;100417.81;5038893;28;20151;-66
2022/05/16 09:33:03;;;;;;;9.57;3.60;;;;;;;24.17;100.00;100419.47;5041121;28;20087;-67
2022/05/16 09:35:42;;;;;;;6.20;3.00;;;;;;;23.84;100.00;100380.91;5043714;28;20024;-65
2022/05/16 09:38:08;;;;;;;9.80;3.33;;;;;;;24.04;100.00;100424.44;5031455;28;20032;-66
2022/05/16 09:40:35;;;;;;;7.65;2.95;;;;;;;23.93;100.00;100400.56;5037266;28;20075;-66
2022/05/16 09:43:14;;;;;;;11.40;3.13;;;;;;;24.06;100.00;100410.88;5037310;28;20020;-66
2022/05/16 09:45:43;;;;;;;19.50;4.53;;;;;;;24.19;100.00;100428.22;5045484;28;20066;-66
2022/05/16 09:48:18;;;;;;;8.63;3.63;;;;;;;24.28;100.00;100459.47;5045731;28;20173;-65
2022/05/16 09:50:55;;;;;;;11.57;4.13;;;;;;;24.19;100.00;100452.41;5047233;28;21029;-65
2022/05/16 09:53:28;;;;;;;8.45;3.83;;;;;;;23.93;100.00;100432.78;5047139;28;20078;-66
2022/05/16 09:55:58;;;;;;;8.85;2.92;;;;;;;23.90;100.00;100446.53;5047663;28;20028;-66
2022/05/16 09:58:29;;;;;;;8.23;3.50;;;;;;;23.92;100.00;100455.28;5045218;28;20077;-66
2022/05/16 10:01:00;;;;;;;9.10;4.43;;;;;;;23.99;100.00;100467.06;5048479;28;20038;-66
2022/05/16 10:03:48;;;;;;;7.40;3.17;;;;;;;24.02;100.00;100450.63;5045501;28;20028;-66
2022/05/16 10:06:32;;;;;;;10.02;3.70;;;;;;;24.11;100.00;100448.78;5046575;28;20023;-65
2022/05/16 10:09:06;;;;;;;9.77;3.58;;;;;;;24.13;100.00;100466.44;5045002;28;20896;-66
2022/05/16 10:11:32;;;;;;;20.25;4.32;;;;;;;24.12;100.00;100450.50;5033789;28;20950;-65
2022/05/16 10:13:58;;;;;;;17.55;3.80;;;;;;;24.20;100.00;100462.13;5026947;28;20025;-65
2022/05/16 10:16:27;;;;;;;11.30;4.10;;;;;;;24.37;100.00;100469.22;5025472;28;20063;-66
2022/05/16 10:18:59;;;;;;;10.98;3.65;;;;;;;24.36;100.00;100472.09;5027638;28;20025;-65
2022/05/16 10:21:29;;;;;;;7.75;4.13;;;;;;;24.41;100.00;100475.97;5042663;28;20032;-66
2022/05/16 10:23:55;;;;;;;14.30;4.45;;;;;;;24.34;100.00;100480.31;5025344;28;20183;-65
2022/05/16 10:26:24;;;;;;;14.07;4.75;;;;;;;23.90;100.00;100438.47;5027448;28;20024;-65
2022/05/16 10:29:03;;;;;;;8.43;3.70;;;;;;;23.90;100.00;100476.91;5042346;28;20021;-65
2022/05/16 10:34:39;;;;;;;11.93;4.60;;;;;;;23.52;100.00;100489.94;5026202;28;20055;-66
2022/05/16 10:37:05;;;;;;;8.52;4.70;;;;;;;23.54;100.00;100488.78;5024737;28;20036;-66
2022/05/16 10:39:31;;;;;;;13.50;4.85;;;;;;;23.59;100.00;100501.72;5027667;28;20086;-66
2022/05/16 10:42:24;;;;;;;28.85;5.25;;;;;;;23.54;100.00;100502.19;5044129;28;20134;-66
2022/05/16 10:45:18;;;;;;;11.60;4.93;;;;;;;23.39;100.00;100506.41;5008686;28;20028;-66
2022/05/16 10:48:01;;;;;;;15.10;5.13;;;;;;;23.33;100.00;100515.94;5026211;28;20963;-66
2022/05/16 10:50:44;;;;;;;7.93;4.60;;;;;;;23.28;100.00;100517.41;5025190;28;20241;-65
2022/05/16 10:53:12;;;;;;;13.13;4.68;;;;;;;23.20;100.00;100515.47;5026175;28;20043;-65
2022/05/16 10:55:52;;;;;;;9.98;4.50;;;;;;;23.14;100.00;100531.34;5025124;28;20052;-66
2022/05/16 10:58:24;;;;;;;14.55;5.03;;;;;;;22.97;100.00;100525.00;5025507;28;20089;-65
2022/05/16 11:01:03;;;;;;;11.18;5.18;;;;;;;22.91;100.00;100514.91;5037599;28;20024;-66
2022/05/16 11:03:42;;;;;;;14.95;5.03;;;;;;;23.01;100.00;100504.09;5039241;28;20832;-65
2022/05/16 11:06:32;;;;;;;8.88;5.38;;;;;;;23.31;100.00;100534.03;5025898;28;20039;-66
2022/05/16 11:09:06;;;;;;;15.90;4.75;;;;;;;23.49;100.00;100541.25;5025751;28;20033;-67
2022/05/16 11:11:48;;;;;;;7.20;4.35;;;;;;;23.50;100.00;100537.53;5025595;28;20104;-66
2022/05/16 11:14:24;;;;;;;8.07;4.88;;;;;;;23.56;100.00;100539.59;5026042;28;20033;-66
2022/05/16 11:16:51;;;;;;;9.25;4.47;;;;;;;23.57;100.00;100534.06;5025552;28;20066;-66
2022/05/16 11:19:37;;;;;;;9.20;4.70;;;;;;;23.59;100.00;100544.66;5025446;28;20036;-65
2022/05/16 11:22:40;;;;;;;7.07;4.43;;;;;;;23.55;100.00;100545.97;5025514;28;20364;-66
2022/05/16 11:25:16;;;;;;;14.05;5.53;;;;;;;23.52;100.00;100547.13;5005103;28;20037;-65
2022/05/16 11:28:04;;;;;;;12.45;5.53;;;;;;;23.33;100.00;100542.75;5021617;28;20050;-65
2022/05/16 11:30:51;;;;;;;14.68;5.30;;;;;;;23.07;100.00;100555.25;5054782;28;20140;-65
2022/05/16 11:33:36;;;;;;;9.40;4.72;;;;;;;22.79;100.00;100553.63;5029958;28;20040;-66
2022/05/16 11:36:04;;;;;;;;;;;;;;;22.70;100.00;100549.16;5026291;28;20887;-65
2022/05/16 11:38:33;;;;;;;7.93;5.00;;;;;;;22.57;100.00;100560.22;5027563;28;19916;-66
2022/05/16 11:41:07;;;;;;;14.07;5.13;;;;;;;22.42;100.00;100543.81;5036733;28;20036;-66
2022/05/16 11:43:37;;;;;;;8.38;5.28;;;;;;;22.63;100.00;100566.81;5038855;28;20035;-65
2022/05/16 11:46:47;;;;;;;12.38;6.38;;;;;;;22.58;100.00;100563.72;5008593;28;20193;-67
2022/05/16 11:49:27;;;;;;;8.55;5.05;;;;;;;22.55;100.00;100561.34;5021684;28;20377;-66
2022/05/16 11:52:09;;;;;;;16.77;5.68;;;;;;;22.62;100.00;100570.47;5027191;28;20552;-65
2022/05/16 11:54:37;;;;;;;11.57;6.30;;;;;;;22.60;100.00;100564.44;5026505;28;20037;-66
2022/05/16 12:02:47;;;;;;;12.70;5.93;;;;;;;22.51;100.00;100582.22;5025669;28;20097;-66